createdAt,value
2023-02-12T00:01:24.060Z,7.1
2023-02-12T00:03:50.733Z,7.1
2023-02-12T00:06:17.428Z,7.1
2023-02-12T00:08:44.165Z,7.1
2023-02-12T00:13:37.478Z,7.1
2023-02-12T00:18:30.838Z,7.1
2023-02-12T00:20:57.499Z,7.1
2023-02-12T00:23:24.205Z,7.1
2023-02-12T00:25:50.921Z,7.1
2023-02-12T00:30:44.252Z,7.1
2023-02-12T00:33:10.943Z,7.1
2023-02-12T00:35:36.392Z,7.1
2023-02-12T00:38:02.843Z,7.1
2023-02-12T00:45:22.909Z,7.1
2023-02-12T00:47:49.591Z,7.1
2023-02-12T00:50:16.276Z,7.1
2023-02-12T00:52:42.966Z,7.1
2023-02-12T00:55:09.655Z,7.1
2023-02-12T00:57:36.336Z,7.1
2023-02-12T01:00:03.369Z,7.1
2023-02-12T01:02:29.757Z,7.1
2023-02-12T01:04:56.401Z,7.1
2023-02-12T01:07:23.074Z,7.1
2023-02-12T01:09:49.763Z,7.1
2023-02-12T01:12:14.987Z,7.1
2023-02-12T01:14:41.684Z,7.1
2023-02-12T01:17:08.357Z,7.1
2023-02-12T01:19:35.042Z,7.1
2023-02-12T01:22:01.731Z,7.1
2023-02-12T01:26:55.104Z,7.1
2023-02-12T01:29:21.862Z,7.1
2023-02-12T01:31:48.472Z,7.1
2023-02-12T01:34:15.155Z,7.1
2023-02-12T01:36:40.412Z,7.1
2023-02-12T01:39:07.084Z,7.1
2023-02-12T01:41:32.332Z,7.1
2023-02-12T01:43:58.988Z,7.1
2023-02-12T01:46:25.680Z,7.1
2023-02-12T01:48:52.545Z,7.1
2023-02-12T01:51:19.086Z,7.1
2023-02-12T01:53:45.759Z,7.1
2023-02-12T01:56:12.420Z,7.1
2023-02-12T01:58:39.132Z,7.1
2023-02-12T02:01:05.805Z,7.1
2023-02-12T02:03:32.474Z,7.1
2023-02-12T02:05:57.734Z,7.1
2023-02-12T02:08:24.423Z,7.1
2023-02-12T02:10:49.626Z,7.1
2023-02-12T02:13:16.937Z,7.1
2023-02-12T02:15:43.008Z,7.1
2023-02-12T02:18:09.703Z,7.1
2023-02-12T02:20:36.376Z,7.1
2023-02-12T02:23:03.056Z,7.1
2023-02-12T02:25:29.739Z,7.1
2023-02-12T02:27:56.445Z,7.1
2023-02-12T02:30:23.102Z,7.1
2023-02-12T02:32:49.801Z,7.1
2023-02-12T02:37:43.366Z,7.1
2023-02-12T02:40:09.859Z,7.1
2023-02-12T02:45:01.750Z,7.1
2023-02-12T02:47:28.444Z,7.1
2023-02-12T02:49:55.115Z,7.1
2023-02-12T02:52:21.820Z,7.1
2023-02-12T02:57:13.739Z,7.1
2023-02-12T02:59:40.432Z,7.1
2023-02-12T03:02:08.580Z,7.1
2023-02-12T03:04:33.800Z,7.1
2023-02-12T03:07:00.487Z,7.1
2023-02-12T03:11:53.861Z,7.1
2023-02-12T03:14:20.550Z,7.1
2023-02-12T03:16:45.812Z,7.1
2023-02-12T03:19:11.027Z,7.1
2023-02-12T03:21:37.688Z,7.1
2023-02-12T03:26:31.293Z,7.1
2023-02-12T03:28:57.767Z,7.1
2023-02-12T03:33:51.120Z,7.1
2023-02-12T03:36:17.811Z,7.1
2023-02-12T03:38:44.500Z,7.1
2023-02-12T03:41:11.184Z,7.1
2023-02-12T03:43:37.872Z,7.1
2023-02-12T03:46:04.551Z,7.1
2023-02-12T03:48:31.231Z,7.1
2023-02-12T03:53:24.624Z,7.1
2023-02-12T03:58:16.550Z,7.1
2023-02-12T04:00:43.311Z,7.1
2023-02-12T04:03:09.905Z,7.1
2023-02-12T04:05:36.614Z,7.1
2023-02-12T04:08:01.861Z,7.1
2023-02-12T04:10:27.080Z,7.1
2023-02-12T04:12:53.775Z,7.1
2023-02-12T04:15:20.877Z,7.1
2023-02-12T04:17:47.142Z,7.1
2023-02-12T04:20:14.116Z,7.1
2023-02-12T04:22:40.530Z,7.1
2023-02-12T04:25:07.207Z,7.1
2023-02-12T04:27:33.918Z,7.1
2023-02-12T04:30:00.576Z,7.1
2023-02-12T04:32:27.264Z,7.1
2023-02-12T04:34:53.956Z,7.1
2023-02-12T04:42:12.580Z,7.1
2023-02-12T04:44:39.272Z,7.1
2023-02-12T04:47:05.949Z,7.1
2023-02-12T04:49:31.219Z,7.1
2023-02-12T04:54:24.555Z,7.1
2023-02-12T04:56:51.228Z,7.1
2023-02-12T04:59:17.905Z,7.1
2023-02-12T05:01:44.593Z,7.1
2023-02-12T05:04:11.483Z,7.1
2023-02-12T05:06:37.980Z,7.1
2023-02-12T05:13:58.029Z,7.1
2023-02-12T05:16:24.700Z,7.1
2023-02-12T05:18:51.391Z,7
2023-02-12T05:21:16.608Z,7.1
2023-02-12T05:26:09.982Z,7
2023-02-12T05:28:37.233Z,7
2023-02-12T05:31:03.383Z,7
2023-02-12T05:33:30.479Z,7.1
2023-02-12T05:38:23.413Z,7
2023-02-12T05:40:50.088Z,7
2023-02-12T05:43:16.779Z,7
2023-02-12T05:45:43.452Z,7
2023-02-12T05:48:10.140Z,7
2023-02-12T05:53:03.729Z,7
2023-02-12T05:55:30.292Z,7
2023-02-12T06:00:22.106Z,7
2023-02-12T06:02:48.797Z,7
2023-02-12T06:05:15.483Z,7
2023-02-12T06:07:42.164Z,7
2023-02-12T06:10:08.851Z,7
2023-02-12T06:12:35.531Z,7
2023-02-12T06:15:02.208Z,7
2023-02-12T06:22:22.278Z,7
2023-02-12T06:24:48.966Z,7
2023-02-12T06:27:15.641Z,7
2023-02-12T06:29:42.335Z,7
2023-02-12T06:32:07.550Z,7
2023-02-12T06:34:34.247Z,7
2023-02-12T06:37:00.916Z,7
2023-02-12T06:39:27.604Z,7
2023-02-12T06:41:54.505Z,7
2023-02-12T06:44:20.969Z,7
2023-02-12T06:46:47.676Z,7
2023-02-12T06:51:41.039Z,7
2023-02-12T06:56:34.392Z,7
2023-02-12T06:59:01.090Z,7
2023-02-12T07:01:27.779Z,7
2023-02-12T07:06:19.916Z,7
2023-02-12T07:08:46.360Z,7
2023-02-12T07:11:13.248Z,7
2023-02-12T07:13:39.732Z,7
2023-02-12T07:16:06.433Z,7
2023-02-12T07:20:59.787Z,7
2023-02-12T07:23:26.484Z,7
2023-02-12T07:25:53.147Z,7
2023-02-12T07:28:19.848Z,7
2023-02-12T07:33:13.221Z,7
2023-02-12T07:35:39.912Z,7
2023-02-12T07:38:06.580Z,7
2023-02-12T07:40:33.285Z,7
2023-02-12T07:42:58.507Z,7
2023-02-12T07:45:25.175Z,7
2023-02-12T07:47:51.868Z,7
2023-02-12T07:50:18.539Z,7
2023-02-12T07:52:45.249Z,7
2023-02-12T07:55:12.107Z,7
2023-02-12T07:57:38.612Z,7
2023-02-12T08:00:06.032Z,7
2023-02-12T08:02:31.967Z,7
2023-02-12T08:04:58.671Z,7
2023-02-12T08:07:25.350Z,7
2023-02-12T08:09:52.032Z,7
2023-02-12T08:12:17.272Z,7
2023-02-12T08:14:42.520Z,7
2023-02-12T08:17:09.212Z,7
2023-02-12T08:19:36.377Z,7
2023-02-12T08:22:02.578Z,7
2023-02-12T08:26:56.163Z,7
2023-02-12T08:29:22.783Z,7
2023-02-12T08:31:49.295Z,7
2023-02-12T08:34:15.979Z,7
2023-02-12T08:36:42.674Z,7
2023-02-12T08:39:09.345Z,7
2023-02-12T08:41:36.024Z,7
2023-02-12T08:44:02.779Z,7
2023-02-12T08:46:29.402Z,7
2023-02-12T08:48:55.117Z,7
2023-02-12T08:51:21.298Z,7
2023-02-12T08:53:47.990Z,7
2023-02-12T08:56:14.673Z,7
2023-02-12T08:58:41.361Z,7
2023-02-12T09:03:34.725Z,7
2023-02-12T09:08:28.149Z,7
2023-02-12T09:10:54.778Z,7
2023-02-12T09:18:14.875Z,7
2023-02-12T09:23:08.215Z,7
2023-02-12T09:25:34.930Z,7
2023-02-12T09:32:53.535Z,7
2023-02-12T09:42:40.268Z,7.1
2023-02-12T09:47:32.208Z,7.1
2023-02-12T09:49:57.468Z,7.1
2023-02-12T09:52:22.676Z,7.1
2023-02-12T09:54:49.354Z,7.1
2023-02-12T09:59:42.746Z,7.1
2023-02-12T10:04:36.100Z,7.1
2023-02-12T10:07:02.799Z,7.1
2023-02-12T10:09:29.476Z,7.1
2023-02-12T10:11:56.158Z,7.1
2023-02-12T10:14:22.843Z,7.1
2023-02-12T10:16:49.517Z,7.1
2023-02-12T10:19:16.225Z,7.1
2023-02-12T10:21:57.239Z,7.1
2023-02-12T10:24:09.754Z,7.1
2023-02-12T10:26:35.071Z,7.1
2023-02-12T10:29:01.696Z,7.1
2023-02-12T10:31:28.341Z,7.1
2023-02-12T10:36:21.704Z,7.1
2023-02-12T10:38:48.219Z,7.1
2023-02-12T10:41:15.011Z,7.1
2023-02-12T10:43:41.741Z,7.1
2023-02-12T10:46:08.321Z,7.1
2023-02-12T10:48:35.229Z,7.2
2023-02-12T10:51:01.741Z,7.1
2023-02-12T10:53:28.384Z,7.2
2023-02-12T10:55:55.087Z,7.2
2023-02-12T10:58:20.425Z,7.2
2023-02-12T11:00:46.943Z,7.2
2023-02-12T11:03:12.317Z,7.2
2023-02-12T11:05:38.855Z,7.2
2023-02-12T11:08:05.728Z,7.2
2023-02-12T11:10:32.230Z,7.2
2023-02-12T11:15:25.746Z,7.2
2023-02-12T11:17:52.484Z,7.2
2023-02-12T11:20:19.135Z,7.2
2023-02-12T11:22:45.802Z,7.2
2023-02-12T11:25:12.534Z,7.2
2023-02-12T11:27:39.146Z,7.2
2023-02-12T11:30:05.815Z,7.2
2023-02-12T11:32:32.506Z,7.2
2023-02-12T11:34:57.649Z,7.2
2023-02-12T11:37:24.401Z,7.2
2023-02-12T11:39:51.086Z,7.2
2023-02-12T11:42:17.729Z,7.2
2023-02-12T11:44:44.550Z,7.2
2023-02-12T11:47:11.196Z,7.2
2023-02-12T11:49:37.725Z,7.2
2023-02-12T11:52:02.965Z,7.2
2023-02-12T11:54:29.651Z,7.2
2023-02-12T11:56:54.885Z,7.2
2023-02-12T11:59:21.583Z,7.2
2023-02-12T12:01:48.249Z,7.2
2023-02-12T12:04:14.933Z,7.2
2023-02-12T12:06:41.614Z,7.2
2023-02-12T12:09:08.314Z,7.2
2023-02-12T12:11:35.046Z,7.3
2023-02-12T12:14:01.721Z,7.3
2023-02-12T12:16:28.367Z,7.3
2023-02-12T12:18:55.148Z,7.3
2023-02-12T12:21:21.801Z,7.3
2023-02-12T12:23:48.408Z,7.3
2023-02-12T12:26:13.675Z,7.3
2023-02-12T12:28:40.389Z,7.4
2023-02-12T12:31:07.022Z,7.4
2023-02-12T12:33:33.720Z,7.4
2023-02-12T12:36:00.517Z,7.4
2023-02-12T12:38:27.083Z,7.4
2023-02-12T12:40:53.813Z,7.4
2023-02-12T12:43:20.550Z,7.4
2023-02-12T12:45:47.127Z,7.4
2023-02-12T12:48:13.870Z,7.4
2023-02-12T12:50:40.643Z,7.4
2023-02-12T12:53:07.374Z,7.5
2023-02-12T12:55:33.864Z,7.5
2023-02-12T12:57:59.091Z,7.6
2023-02-12T13:00:25.840Z,7.6
2023-02-12T13:02:52.625Z,7.6
2023-02-12T13:05:19.142Z,7.7
2023-02-12T13:07:45.831Z,7.7
2023-02-12T13:10:12.599Z,7.7
2023-02-12T13:12:39.207Z,7.8
2023-02-12T13:15:05.909Z,7.8
2023-02-12T13:17:32.565Z,7.9
2023-02-12T13:19:59.245Z,7.9
2023-02-12T13:22:25.930Z,7.9
2023-02-12T13:24:52.624Z,7.9
2023-02-12T13:27:19.361Z,7.9
2023-02-12T13:29:44.561Z,7.9
2023-02-12T13:32:11.257Z,7.9
2023-02-12T13:34:37.981Z,7.9
2023-02-12T13:37:04.586Z,7.9
2023-02-12T13:39:31.257Z,8
2023-02-12T13:41:57.987Z,8
2023-02-12T13:44:24.716Z,8
2023-02-12T13:46:51.445Z,8
2023-02-12T13:49:18.148Z,8
2023-02-12T13:51:44.722Z,8
2023-02-12T13:54:11.468Z,8
2023-02-12T13:56:38.076Z,8
2023-02-12T13:59:04.863Z,8
2023-02-12T14:01:29.960Z,8
2023-02-12T14:03:56.754Z,8
2023-02-12T14:06:23.387Z,8
2023-02-12T14:08:50.023Z,8
2023-02-12T14:11:16.858Z,8
2023-02-12T14:13:43.380Z,8
2023-02-12T14:16:10.158Z,8
2023-02-12T14:18:36.938Z,8
2023-02-12T14:21:03.537Z,8
2023-02-12T14:23:30.212Z,8
2023-02-12T14:25:56.937Z,8
2023-02-12T14:28:23.597Z,8
2023-02-12T14:30:50.161Z,8.1
2023-02-12T14:33:16.841Z,8.1
2023-02-12T14:35:43.537Z,8.1
2023-02-12T14:38:08.756Z,8.1
2023-02-12T14:40:35.450Z,8.1
2023-02-12T14:43:02.133Z,8.1
2023-02-12T14:45:28.896Z,8.1
2023-02-12T14:47:55.485Z,8.1
2023-02-12T14:50:22.222Z,8.1
2023-02-12T14:52:48.948Z,8.1
2023-02-12T14:55:15.550Z,8.2
2023-02-12T14:57:42.372Z,8.2
2023-02-12T15:00:09.110Z,8.2
2023-02-12T15:05:02.314Z,8.2
2023-02-12T15:07:28.978Z,8.2
2023-02-12T15:09:54.198Z,8.2
2023-02-12T15:12:20.930Z,8.2
2023-02-12T15:14:47.571Z,8.2
2023-02-12T15:17:14.384Z,8.2
2023-02-12T15:19:40.973Z,8.2
2023-02-12T15:22:07.680Z,8.2
2023-02-12T15:24:34.481Z,8.2
2023-02-12T15:27:01.160Z,8.2
2023-02-12T15:29:27.687Z,8.2
2023-02-12T15:31:54.450Z,8.2
2023-02-12T15:34:21.148Z,8.2
2023-02-12T15:36:47.814Z,8.2
2023-02-12T15:39:14.566Z,8.2
2023-02-12T15:41:39.686Z,8.2
2023-02-12T15:44:06.322Z,8.2
2023-02-12T15:46:33.151Z,8.2
2023-02-12T15:48:59.694Z,8.2
2023-02-12T15:51:26.382Z,8.2
2023-02-12T15:53:53.070Z,8.2
2023-02-12T15:56:19.739Z,8.2
2023-02-12T15:58:46.434Z,8.2
2023-02-12T16:01:13.119Z,8.2
2023-02-12T16:03:39.798Z,8.2
2023-02-12T16:06:06.498Z,8.2
2023-02-12T16:08:33.423Z,8.2
2023-02-12T16:10:59.946Z,8.2
2023-02-12T16:13:25.179Z,8.2
2023-02-12T16:15:51.753Z,8.2
2023-02-12T16:18:18.441Z,8.2
2023-02-12T16:20:45.140Z,8.2
2023-02-12T16:23:11.837Z,8.2
2023-02-12T16:25:38.507Z,8.2
2023-02-12T16:28:05.182Z,8.2
2023-02-12T16:30:31.929Z,8.2
2023-02-12T16:32:58.562Z,8.2
2023-02-12T16:35:25.251Z,8.2
2023-02-12T16:37:52.074Z,8.1
2023-02-12T16:40:18.619Z,8.1
2023-02-12T16:42:45.304Z,8.1
2023-02-12T16:45:12.017Z,8.1
2023-02-12T16:47:37.332Z,8.1
2023-02-12T16:50:03.884Z,8.1
2023-02-12T16:52:30.660Z,8.1
2023-02-12T16:54:57.541Z,8.1
2023-02-12T16:57:24.104Z,8.1
2023-02-12T16:59:50.728Z,8.1
2023-02-12T17:02:17.509Z,8.1
2023-02-12T17:04:44.062Z,8.1
2023-02-12T17:07:10.682Z,8.1
2023-02-12T17:09:37.371Z,8.1
2023-02-12T17:12:04.055Z,8.1
2023-02-12T17:14:30.743Z,8.1
2023-02-12T17:21:50.801Z,8
2023-02-12T17:24:16.020Z,8
2023-02-12T17:26:42.704Z,8
2023-02-12T17:29:09.381Z,8
2023-02-12T17:31:36.101Z,8
2023-02-12T17:36:29.440Z,8
2023-02-12T17:38:56.156Z,8
2023-02-12T17:41:23.541Z,8
2023-02-12T17:43:49.548Z,8
2023-02-12T17:46:14.742Z,8
2023-02-12T17:51:06.702Z,8
2023-02-12T17:53:33.498Z,8
2023-02-12T17:56:00.198Z,8
2023-02-12T17:58:26.706Z,7.9
2023-02-12T18:00:53.385Z,7.9
2023-02-12T18:05:47.332Z,7.9
2023-02-12T18:08:13.557Z,7.9
2023-02-12T18:10:40.249Z,7.9
2023-02-12T18:13:06.814Z,7.9
2023-02-12T18:15:33.580Z,7.9
2023-02-12T18:20:26.939Z,7.9
2023-02-12T18:22:52.175Z,7.9
2023-02-12T18:25:18.861Z,7.9
2023-02-12T18:27:45.500Z,7.9
2023-02-12T18:30:11.072Z,7.9
2023-02-12T18:32:37.405Z,7.9
2023-02-12T18:35:04.090Z,7.9
2023-02-12T18:37:30.774Z,7.9
2023-02-12T18:39:57.452Z,7.9
2023-02-12T18:42:24.140Z,7.9
2023-02-12T18:44:50.829Z,7.9
2023-02-12T18:47:17.508Z,7.9
2023-02-12T18:49:42.871Z,7.9
2023-02-12T18:52:09.452Z,7.9
2023-02-12T18:57:02.906Z,7.9
2023-02-12T18:59:29.595Z,7.9
2023-02-12T19:04:21.412Z,7.9
2023-02-12T19:06:48.088Z,7.9
2023-02-12T19:09:14.774Z,7.9
2023-02-12T19:11:41.531Z,7.9
2023-02-12T19:14:08.171Z,7.9
2023-02-12T19:16:34.888Z,7.9
2023-02-12T19:19:02.272Z,7.9
2023-02-12T19:21:28.300Z,7.9
2023-02-12T19:23:54.923Z,7.9
2023-02-12T19:26:20.139Z,7.9
2023-02-12T19:28:46.917Z,7.9
2023-02-12T19:33:40.337Z,7.9
2023-02-12T19:36:05.572Z,7.9
2023-02-12T19:38:32.255Z,7.9
2023-02-12T19:40:58.928Z,7.8
2023-02-12T19:48:18.962Z,7.8
2023-02-12T19:50:45.522Z,7.8
2023-02-12T19:53:12.219Z,7.8
2023-02-12T19:55:38.893Z,7.8
2023-02-12T19:58:05.579Z,7.8
2023-02-12T20:02:58.955Z,7.8
2023-02-12T20:10:19.010Z,7.8
2023-02-12T20:12:45.696Z,7.8
2023-02-12T20:17:39.064Z,7.8
2023-02-12T20:20:05.758Z,7.8
2023-02-12T20:22:32.440Z,7.8
2023-02-12T20:24:57.653Z,7.7
2023-02-12T20:29:51.031Z,7.8
2023-02-12T20:34:44.407Z,7.7
2023-02-12T20:37:11.083Z,7.7
2023-02-12T20:39:36.320Z,7.7
2023-02-12T20:42:03.005Z,7.7
2023-02-12T20:46:56.596Z,7.7
2023-02-12T20:51:49.791Z,7.7
2023-02-12T20:54:16.434Z,7.7
2023-02-12T20:56:43.381Z,7.7
2023-02-12T20:59:09.812Z,7.7
2023-02-12T21:01:36.558Z,7.7
2023-02-12T21:04:03.365Z,7.7
2023-02-12T21:06:29.864Z,7.7
2023-02-12T21:08:56.717Z,7.7
2023-02-12T21:11:21.976Z,7.7
2023-02-12T21:16:15.284Z,7.7
2023-02-12T21:18:41.811Z,7.7
2023-02-12T21:21:08.899Z,7.7
2023-02-12T21:23:35.352Z,7.7
2023-02-12T21:26:02.065Z,7.7
2023-02-12T21:28:28.734Z,7.7
2023-02-12T21:33:22.079Z,7.7
2023-02-12T21:35:48.793Z,7.7
2023-02-12T21:38:15.468Z,7.7
2023-02-12T21:40:42.145Z,7.7
2023-02-12T21:43:07.307Z,7.6
2023-02-12T21:48:00.733Z,7.6
2023-02-12T21:50:27.405Z,7.6
2023-02-12T21:52:54.092Z,7.6
2023-02-12T21:55:20.813Z,7.6
2023-02-12T21:57:47.544Z,7.6
2023-02-12T22:00:14.155Z,7.6
2023-02-12T22:05:07.401Z,7.6
2023-02-12T22:07:34.070Z,7.6
2023-02-12T22:10:01.005Z,7.6
2023-02-12T22:12:27.418Z,7.6
2023-02-12T22:14:52.784Z,7.6
2023-02-12T22:17:19.471Z,7.6
2023-02-12T22:19:46.190Z,7.6
2023-02-12T22:22:12.832Z,7.6
2023-02-12T22:24:39.545Z,7.6
2023-02-12T22:29:32.802Z,7.6
2023-02-12T22:34:26.447Z,7.6
2023-02-12T22:36:53.003Z,7.6
2023-02-12T22:39:19.476Z,7.6
2023-02-12T22:44:13.071Z,7.6
2023-02-12T22:49:04.945Z,7.5
2023-02-12T22:51:31.619Z,7.5
2023-02-12T22:53:58.332Z,7.5
2023-02-12T22:58:51.788Z,7.5
2023-02-12T23:03:45.079Z,7.5
2023-02-12T23:06:11.698Z,7.5
2023-02-12T23:08:38.384Z,7.5
2023-02-12T23:11:05.077Z,7.5
2023-02-12T23:13:31.803Z,7.4
2023-02-12T23:15:58.498Z,7.4
2023-02-12T23:18:25.187Z,7.4
2023-02-12T23:20:50.175Z,7.4
2023-02-12T23:23:17.058Z,7.4
2023-02-12T23:25:43.739Z,7.4
2023-02-12T23:28:10.424Z,7.4
2023-02-12T23:33:03.626Z,7.4
2023-02-12T23:35:30.347Z,7.4
2023-02-12T23:37:57.180Z,7.4
2023-02-12T23:40:23.898Z,7.4
2023-02-12T23:42:50.552Z,7.4
2023-02-12T23:45:17.071Z,7.4
2023-02-12T23:47:43.961Z,7.4
2023-02-12T23:50:10.601Z,7.4
2023-02-12T23:52:35.738Z,7.4
2023-02-12T23:57:27.776Z,7.4
